sensor_id;sensor_type;location;lat;lon;timestamp;P1;durP1;ratioP1;P2;durP2;ratioP2
16442;SDS011;8331;51.654;14.376;2023-01-25T00:01:51;89.17;;;37.77;;
16442;SDS011;8331;51.654;14.376;2023-01-25T00:04:18;94.23;;;40.03;;
16442;SDS011;8331;51.654;14.376;2023-01-25T00:06:44;85.67;;;37.23;;
16442;SDS011;8331;51.654;14.376;2023-01-25T00:09:11;88.27;;;38.47;;
16442;SDS011;8331;51.654;14.376;2023-01-25T00:11:38;95.37;;;39.90;;
16442;SDS011;8331;51.654;14.376;2023-01-25T00:14:05;100.93;;;40.60;;
16442;SDS011;8331;51.654;14.376;2023-01-25T00:16:31;90.67;;;39.83;;
16442;SDS011;8331;51.654;14.376;2023-01-25T00:18:58;94.27;;;39.67;;
16442;SDS011;8331;51.654;14.376;2023-01-25T00:21:25;94.10;;;40.33;;
16442;SDS011;8331;51.654;14.376;2023-01-25T00:23:51;97.47;;;37.77;;
16442;SDS011;8331;51.654;14.376;2023-01-25T00:26:18;100.20;;;40.60;;
16442;SDS011;8331;51.654;14.376;2023-01-25T00:28:48;91.47;;;39.73;;
16442;SDS011;8331;51.654;14.376;2023-01-25T00:31:20;98.53;;;39.77;;
16442;SDS011;8331;51.654;14.376;2023-01-25T00:36:33;101.80;;;39.80;;
16442;SDS011;8331;51.654;14.376;2023-01-25T00:39:05;92.80;;;39.63;;
16442;SDS011;8331;51.654;14.376;2023-01-25T00:41:32;86.90;;;37.93;;
16442;SDS011;8331;51.654;14.376;2023-01-25T00:43:58;98.63;;;41.03;;
16442;SDS011;8331;51.654;14.376;2023-01-25T00:46:25;89.90;;;37.70;;
16442;SDS011;8331;51.654;14.376;2023-01-25T00:48:54;89.37;;;36.63;;
16442;SDS011;8331;51.654;14.376;2023-01-25T00:51:21;92.57;;;37.67;;
16442;SDS011;8331;51.654;14.376;2023-01-25T00:53:48;91.53;;;39.53;;
16442;SDS011;8331;51.654;14.376;2023-01-25T00:56:15;93.13;;;39.23;;
16442;SDS011;8331;51.654;14.376;2023-01-25T00:58:41;86.03;;;37.37;;
16442;SDS011;8331;51.654;14.376;2023-01-25T01:01:09;92.07;;;38.73;;
16442;SDS011;8331;51.654;14.376;2023-01-25T01:03:36;101.97;;;39.23;;
16442;SDS011;8331;51.654;14.376;2023-01-25T01:06:17;91.70;;;38.13;;
16442;SDS011;8331;51.654;14.376;2023-01-25T01:08:44;90.07;;;38.60;;
16442;SDS011;8331;51.654;14.376;2023-01-25T01:11:11;84.13;;;37.03;;
16442;SDS011;8331;51.654;14.376;2023-01-25T01:13:38;82.43;;;37.37;;
16442;SDS011;8331;51.654;14.376;2023-01-25T01:16:05;90.47;;;37.80;;
16442;SDS011;8331;51.654;14.376;2023-01-25T01:18:37;91.83;;;39.03;;
16442;SDS011;8331;51.654;14.376;2023-01-25T01:21:04;92.30;;;39.00;;
16442;SDS011;8331;51.654;14.376;2023-01-25T01:23:32;91.10;;;38.37;;
16442;SDS011;8331;51.654;14.376;2023-01-25T01:25:58;86.20;;;39.43;;
16442;SDS011;8331;51.654;14.376;2023-01-25T01:28:27;91.37;;;39.97;;
16442;SDS011;8331;51.654;14.376;2023-01-25T01:30:58;85.80;;;37.13;;
16442;SDS011;8331;51.654;14.376;2023-01-25T01:33:25;83.93;;;36.57;;
16442;SDS011;8331;51.654;14.376;2023-01-25T01:35:51;91.00;;;38.07;;
16442;SDS011;8331;51.654;14.376;2023-01-25T01:38:18;80.37;;;36.70;;
16442;SDS011;8331;51.654;14.376;2023-01-25T01:40:45;89.93;;;37.23;;
16442;SDS011;8331;51.654;14.376;2023-01-25T01:43:18;86.63;;;37.30;;
16442;SDS011;8331;51.654;14.376;2023-01-25T01:48:23;80.57;;;36.47;;
16442;SDS011;8331;51.654;14.376;2023-01-25T01:50:56;74.27;;;34.60;;
16442;SDS011;8331;51.654;14.376;2023-01-25T01:53:24;84.17;;;37.90;;
16442;SDS011;8331;51.654;14.376;2023-01-25T01:55:52;82.43;;;35.87;;
16442;SDS011;8331;51.654;14.376;2023-01-25T01:58:22;80.77;;;37.20;;
16442;SDS011;8331;51.654;14.376;2023-01-25T02:00:48;78.53;;;35.13;;
16442;SDS011;8331;51.654;14.376;2023-01-25T02:03:15;79.90;;;34.77;;
16442;SDS011;8331;51.654;14.376;2023-01-25T02:08:15;84.57;;;37.07;;
16442;SDS011;8331;51.654;14.376;2023-01-25T02:10:42;77.87;;;37.47;;
16442;SDS011;8331;51.654;14.376;2023-01-25T02:13:09;79.17;;;34.80;;
16442;SDS011;8331;51.654;14.376;2023-01-25T02:15:37;77.93;;;35.80;;
16442;SDS011;8331;51.654;14.376;2023-01-25T02:18:06;74.00;;;33.90;;
16442;SDS011;8331;51.654;14.376;2023-01-25T02:20:37;97.10;;;38.90;;
16442;SDS011;8331;51.654;14.376;2023-01-25T02:25:37;86.40;;;37.23;;
16442;SDS011;8331;51.654;14.376;2023-01-25T02:28:23;93.53;;;39.33;;
16442;SDS011;8331;51.654;14.376;2023-01-25T02:30:51;89.90;;;38.13;;
16442;SDS011;8331;51.654;14.376;2023-01-25T02:33:18;97.07;;;38.17;;
16442;SDS011;8331;51.654;14.376;2023-01-25T02:35:45;83.10;;;38.50;;
16442;SDS011;8331;51.654;14.376;2023-01-25T02:38:15;86.93;;;37.40;;
16442;SDS011;8331;51.654;14.376;2023-01-25T02:40:47;90.83;;;37.53;;
16442;SDS011;8331;51.654;14.376;2023-01-25T02:43:16;85.73;;;36.10;;
16442;SDS011;8331;51.654;14.376;2023-01-25T02:45:48;83.10;;;34.27;;
16442;SDS011;8331;51.654;14.376;2023-01-25T02:48:16;85.50;;;37.30;;
16442;SDS011;8331;51.654;14.376;2023-01-25T02:50:43;85.00;;;36.97;;
16442;SDS011;8331;51.654;14.376;2023-01-25T02:53:10;85.97;;;37.47;;
16442;SDS011;8331;51.654;14.376;2023-01-25T02:55:37;99.67;;;39.53;;
16442;SDS011;8331;51.654;14.376;2023-01-25T02:58:06;92.80;;;38.50;;
16442;SDS011;8331;51.654;14.376;2023-01-25T03:00:33;91.20;;;38.73;;
16442;SDS011;8331;51.654;14.376;2023-01-25T03:02:59;86.07;;;37.03;;
16442;SDS011;8331;51.654;14.376;2023-01-25T03:05:26;91.03;;;37.43;;
16442;SDS011;8331;51.654;14.376;2023-01-25T03:07:53;83.83;;;36.90;;
16442;SDS011;8331;51.654;14.376;2023-01-25T03:10:21;90.57;;;38.20;;
16442;SDS011;8331;51.654;14.376;2023-01-25T03:12:47;84.93;;;37.03;;
16442;SDS011;8331;51.654;14.376;2023-01-25T03:15:14;87.73;;;36.83;;
16442;SDS011;8331;51.654;14.376;2023-01-25T03:17:41;88.07;;;36.70;;
16442;SDS011;8331;51.654;14.376;2023-01-25T03:20:08;82.57;;;37.00;;
16442;SDS011;8331;51.654;14.376;2023-01-25T03:22:36;83.07;;;37.57;;
16442;SDS011;8331;51.654;14.376;2023-01-25T03:25:03;80.57;;;35.47;;
16442;SDS011;8331;51.654;14.376;2023-01-25T03:27:30;81.70;;;34.97;;
16442;SDS011;8331;51.654;14.376;2023-01-25T03:30:06;88.23;;;36.20;;
16442;SDS011;8331;51.654;14.376;2023-01-25T03:32:34;96.80;;;37.93;;
16442;SDS011;8331;51.654;14.376;2023-01-25T03:35:06;87.27;;;36.43;;
16442;SDS011;8331;51.654;14.376;2023-01-25T03:37:33;96.17;;;37.23;;
16442;SDS011;8331;51.654;14.376;2023-01-25T03:40:01;100.43;;;39.47;;
16442;SDS011;8331;51.654;14.376;2023-01-25T03:42:29;91.07;;;37.00;;
16442;SDS011;8331;51.654;14.376;2023-01-25T03:44:57;90.20;;;37.70;;
16442;SDS011;8331;51.654;14.376;2023-01-25T03:47:24;79.70;;;35.63;;
16442;SDS011;8331;51.654;14.376;2023-01-25T03:49:51;84.53;;;36.17;;
16442;SDS011;8331;51.654;14.376;2023-01-25T03:52:18;78.80;;;35.23;;
16442;SDS011;8331;51.654;14.376;2023-01-25T03:54:46;76.63;;;35.27;;
16442;SDS011;8331;51.654;14.376;2023-01-25T03:57:13;82.03;;;35.17;;
16442;SDS011;8331;51.654;14.376;2023-01-25T03:59:48;78.53;;;34.30;;
16442;SDS011;8331;51.654;14.376;2023-01-25T04:02:15;82.97;;;35.50;;
16442;SDS011;8331;51.654;14.376;2023-01-25T04:04:41;75.43;;;33.20;;
16442;SDS011;8331;51.654;14.376;2023-01-25T04:07:08;75.53;;;32.93;;
16442;SDS011;8331;51.654;14.376;2023-01-25T04:09:37;78.27;;;34.17;;
16442;SDS011;8331;51.654;14.376;2023-01-25T04:12:06;67.40;;;31.23;;
16442;SDS011;8331;51.654;14.376;2023-01-25T04:14:33;71.10;;;33.97;;
16442;SDS011;8331;51.654;14.376;2023-01-25T04:17:14;70.17;;;32.27;;
16442;SDS011;8331;51.654;14.376;2023-01-25T04:19:47;69.17;;;32.23;;
16442;SDS011;8331;51.654;14.376;2023-01-25T04:22:19;75.43;;;33.17;;
16442;SDS011;8331;51.654;14.376;2023-01-25T04:24:48;67.17;;;31.07;;
16442;SDS011;8331;51.654;14.376;2023-01-25T04:27:16;67.40;;;33.07;;
16442;SDS011;8331;51.654;14.376;2023-01-25T04:29:52;72.57;;;33.07;;
16442;SDS011;8331;51.654;14.376;2023-01-25T04:32:20;84.30;;;35.20;;
16442;SDS011;8331;51.654;14.376;2023-01-25T04:34:46;78.87;;;33.60;;
16442;SDS011;8331;51.654;14.376;2023-01-25T04:37:17;68.20;;;30.27;;
16442;SDS011;8331;51.654;14.376;2023-01-25T04:39:51;73.03;;;31.17;;
16442;SDS011;8331;51.654;14.376;2023-01-25T04:42:19;72.40;;;32.30;;
16442;SDS011;8331;51.654;14.376;2023-01-25T04:44:49;73.10;;;33.23;;
16442;SDS011;8331;51.654;14.376;2023-01-25T04:47:16;70.70;;;30.20;;
16442;SDS011;8331;51.654;14.376;2023-01-25T04:49:43;66.37;;;30.57;;
16442;SDS011;8331;51.654;14.376;2023-01-25T04:52:11;68.73;;;31.57;;
16442;SDS011;8331;51.654;14.376;2023-01-25T04:54:37;64.00;;;28.90;;
16442;SDS011;8331;51.654;14.376;2023-01-25T04:57:05;67.50;;;31.40;;
16442;SDS011;8331;51.654;14.376;2023-01-25T04:59:31;66.57;;;30.30;;
16442;SDS011;8331;51.654;14.376;2023-01-25T05:01:58;63.07;;;28.70;;
16442;SDS011;8331;51.654;14.376;2023-01-25T05:04:25;65.30;;;30.50;;
16442;SDS011;8331;51.654;14.376;2023-01-25T05:06:53;64.70;;;30.40;;
16442;SDS011;8331;51.654;14.376;2023-01-25T05:09:19;64.77;;;29.67;;
16442;SDS011;8331;51.654;14.376;2023-01-25T05:11:47;60.77;;;29.57;;
16442;SDS011;8331;51.654;14.376;2023-01-25T05:14:21;64.30;;;29.33;;
16442;SDS011;8331;51.654;14.376;2023-01-25T05:16:49;67.63;;;30.53;;
16442;SDS011;8331;51.654;14.376;2023-01-25T05:19:17;66.73;;;29.77;;
16442;SDS011;8331;51.654;14.376;2023-01-25T05:21:53;62.50;;;27.87;;
16442;SDS011;8331;51.654;14.376;2023-01-25T05:24:31;63.67;;;28.27;;
16442;SDS011;8331;51.654;14.376;2023-01-25T05:27:02;63.37;;;29.20;;
16442;SDS011;8331;51.654;14.376;2023-01-25T05:29:58;64.20;;;29.60;;
16442;SDS011;8331;51.654;14.376;2023-01-25T05:32:42;62.33;;;29.50;;
16442;SDS011;8331;51.654;14.376;2023-01-25T05:35:09;67.10;;;29.80;;
16442;SDS011;8331;51.654;14.376;2023-01-25T05:37:37;71.03;;;30.87;;
16442;SDS011;8331;51.654;14.376;2023-01-25T05:40:06;66.33;;;29.37;;
16442;SDS011;8331;51.654;14.376;2023-01-25T05:42:36;64.93;;;27.83;;
16442;SDS011;8331;51.654;14.376;2023-01-25T05:45:06;56.20;;;26.67;;
16442;SDS011;8331;51.654;14.376;2023-01-25T05:47:35;49.03;;;24.73;;
16442;SDS011;8331;51.654;14.376;2023-01-25T05:50:01;52.73;;;24.60;;
16442;SDS011;8331;51.654;14.376;2023-01-25T05:52:48;50.27;;;23.40;;
16442;SDS011;8331;51.654;14.376;2023-01-25T05:55:14;44.67;;;23.07;;
16442;SDS011;8331;51.654;14.376;2023-01-25T05:57:42;50.67;;;24.00;;
16442;SDS011;8331;51.654;14.376;2023-01-25T06:00:09;48.30;;;23.37;;
16442;SDS011;8331;51.654;14.376;2023-01-25T06:02:39;48.63;;;23.20;;
16442;SDS011;8331;51.654;14.376;2023-01-25T06:05:08;50.90;;;23.43;;
16442;SDS011;8331;51.654;14.376;2023-01-25T06:07:35;47.87;;;22.77;;
16442;SDS011;8331;51.654;14.376;2023-01-25T06:10:02;51.50;;;24.27;;
16442;SDS011;8331;51.654;14.376;2023-01-25T06:12:29;48.50;;;23.10;;
16442;SDS011;8331;51.654;14.376;2023-01-25T06:14:57;45.47;;;22.53;;
16442;SDS011;8331;51.654;14.376;2023-01-25T06:17:24;46.03;;;22.90;;
16442;SDS011;8331;51.654;14.376;2023-01-25T06:20:10;42.93;;;21.37;;
16442;SDS011;8331;51.654;14.376;2023-01-25T06:22:48;41.77;;;21.03;;
16442;SDS011;8331;51.654;14.376;2023-01-25T06:25:14;39.10;;;20.40;;
16442;SDS011;8331;51.654;14.376;2023-01-25T06:27:41;47.93;;;22.47;;
16442;SDS011;8331;51.654;14.376;2023-01-25T06:30:08;41.73;;;21.97;;
16442;SDS011;8331;51.654;14.376;2023-01-25T06:32:35;41.20;;;21.07;;
16442;SDS011;8331;51.654;14.376;2023-01-25T06:35:01;44.13;;;21.60;;
16442;SDS011;8331;51.654;14.376;2023-01-25T06:37:28;46.97;;;22.20;;
16442;SDS011;8331;51.654;14.376;2023-01-25T06:39:54;43.20;;;21.70;;
16442;SDS011;8331;51.654;14.376;2023-01-25T06:42:24;40.63;;;21.80;;
16442;SDS011;8331;51.654;14.376;2023-01-25T06:44:51;39.60;;;20.57;;
16442;SDS011;8331;51.654;14.376;2023-01-25T06:47:17;45.53;;;22.13;;
16442;SDS011;8331;51.654;14.376;2023-01-25T06:49:44;40.00;;;21.43;;
16442;SDS011;8331;51.654;14.376;2023-01-25T06:52:10;41.60;;;20.50;;
16442;SDS011;8331;51.654;14.376;2023-01-25T06:54:37;50.17;;;21.73;;
16442;SDS011;8331;51.654;14.376;2023-01-25T06:57:03;46.37;;;22.37;;
16442;SDS011;8331;51.654;14.376;2023-01-25T06:59:30;41.40;;;21.67;;
16442;SDS011;8331;51.654;14.376;2023-01-25T07:01:57;42.50;;;21.63;;
16442;SDS011;8331;51.654;14.376;2023-01-25T07:04:23;42.20;;;21.17;;
16442;SDS011;8331;51.654;14.376;2023-01-25T07:06:50;39.40;;;20.47;;
16442;SDS011;8331;51.654;14.376;2023-01-25T07:09:16;36.97;;;19.73;;
16442;SDS011;8331;51.654;14.376;2023-01-25T07:11:49;37.90;;;19.90;;
16442;SDS011;8331;51.654;14.376;2023-01-25T07:14:16;41.63;;;20.87;;
16442;SDS011;8331;51.654;14.376;2023-01-25T07:16:43;36.13;;;18.43;;
16442;SDS011;8331;51.654;14.376;2023-01-25T07:19:09;35.30;;;19.17;;
16442;SDS011;8331;51.654;14.376;2023-01-25T07:21:36;36.10;;;18.03;;
16442;SDS011;8331;51.654;14.376;2023-01-25T07:24:03;35.00;;;18.47;;
16442;SDS011;8331;51.654;14.376;2023-01-25T07:26:30;35.60;;;19.60;;
16442;SDS011;8331;51.654;14.376;2023-01-25T07:28:57;36.83;;;19.70;;
16442;SDS011;8331;51.654;14.376;2023-01-25T07:31:25;36.20;;;18.77;;
16442;SDS011;8331;51.654;14.376;2023-01-25T07:33:53;37.23;;;18.13;;
16442;SDS011;8331;51.654;14.376;2023-01-25T07:36:19;35.83;;;18.50;;
16442;SDS011;8331;51.654;14.376;2023-01-25T07:38:46;37.73;;;19.70;;
16442;SDS011;8331;51.654;14.376;2023-01-25T07:41:13;35.00;;;18.10;;
16442;SDS011;8331;51.654;14.376;2023-01-25T07:43:41;31.80;;;16.67;;
16442;SDS011;8331;51.654;14.376;2023-01-25T07:46:10;30.37;;;17.07;;
16442;SDS011;8331;51.654;14.376;2023-01-25T07:48:37;32.77;;;16.80;;
16442;SDS011;8331;51.654;14.376;2023-01-25T07:51:04;27.13;;;15.57;;
16442;SDS011;8331;51.654;14.376;2023-01-25T07:53:40;33.40;;;16.80;;
16442;SDS011;8331;51.654;14.376;2023-01-25T07:56:08;30.80;;;15.70;;
16442;SDS011;8331;51.654;14.376;2023-01-25T07:58:35;29.43;;;16.90;;
16442;SDS011;8331;51.654;14.376;2023-01-25T08:01:07;30.47;;;15.47;;
16442;SDS011;8331;51.654;14.376;2023-01-25T08:03:35;29.70;;;14.97;;
16442;SDS011;8331;51.654;14.376;2023-01-25T08:06:01;28.90;;;15.07;;
16442;SDS011;8331;51.654;14.376;2023-01-25T08:08:34;26.50;;;15.00;;
16442;SDS011;8331;51.654;14.376;2023-01-25T08:11:06;26.33;;;14.40;;
16442;SDS011;8331;51.654;14.376;2023-01-25T08:13:33;26.87;;;14.83;;
16442;SDS011;8331;51.654;14.376;2023-01-25T08:15:59;24.90;;;13.60;;
16442;SDS011;8331;51.654;14.376;2023-01-25T08:18:26;27.07;;;14.37;;
16442;SDS011;8331;51.654;14.376;2023-01-25T08:20:56;24.10;;;13.67;;
16442;SDS011;8331;51.654;14.376;2023-01-25T08:23:22;23.70;;;13.13;;
16442;SDS011;8331;51.654;14.376;2023-01-25T08:25:50;22.83;;;14.00;;
16442;SDS011;8331;51.654;14.376;2023-01-25T08:28:16;24.60;;;13.90;;
16442;SDS011;8331;51.654;14.376;2023-01-25T08:30:43;25.77;;;13.73;;
16442;SDS011;8331;51.654;14.376;2023-01-25T08:33:22;23.73;;;13.20;;
16442;SDS011;8331;51.654;14.376;2023-01-25T08:35:55;27.20;;;14.27;;
16442;SDS011;8331;51.654;14.376;2023-01-25T08:38:22;27.00;;;14.03;;
16442;SDS011;8331;51.654;14.376;2023-01-25T08:40:48;23.13;;;14.10;;
16442;SDS011;8331;51.654;14.376;2023-01-25T08:43:15;23.37;;;14.40;;
16442;SDS011;8331;51.654;14.376;2023-01-25T08:45:41;24.90;;;14.87;;
16442;SDS011;8331;51.654;14.376;2023-01-25T08:48:08;24.10;;;14.00;;
16442;SDS011;8331;51.654;14.376;2023-01-25T08:50:35;24.07;;;14.03;;
16442;SDS011;8331;51.654;14.376;2023-01-25T08:53:02;22.57;;;13.47;;
16442;SDS011;8331;51.654;14.376;2023-01-25T08:55:28;23.30;;;13.87;;
16442;SDS011;8331;51.654;14.376;2023-01-25T08:57:55;25.50;;;14.30;;
16442;SDS011;8331;51.654;14.376;2023-01-25T09:00:22;24.33;;;14.17;;
16442;SDS011;8331;51.654;14.376;2023-01-25T09:02:49;23.23;;;13.80;;
16442;SDS011;8331;51.654;14.376;2023-01-25T09:05:16;26.33;;;14.30;;
16442;SDS011;8331;51.654;14.376;2023-01-25T09:07:42;24.67;;;13.60;;
16442;SDS011;8331;51.654;14.376;2023-01-25T09:10:09;25.00;;;13.57;;
16442;SDS011;8331;51.654;14.376;2023-01-25T09:12:37;23.53;;;13.40;;
16442;SDS011;8331;51.654;14.376;2023-01-25T09:15:03;26.07;;;14.47;;
16442;SDS011;8331;51.654;14.376;2023-01-25T09:17:30;24.33;;;13.27;;
16442;SDS011;8331;51.654;14.376;2023-01-25T09:19:57;23.73;;;13.47;;
16442;SDS011;8331;51.654;14.376;2023-01-25T09:22:23;26.97;;;14.10;;
16442;SDS011;8331;51.654;14.376;2023-01-25T09:24:50;25.10;;;14.57;;
16442;SDS011;8331;51.654;14.376;2023-01-25T09:27:19;27.60;;;14.37;;
16442;SDS011;8331;51.654;14.376;2023-01-25T09:29:46;25.50;;;15.23;;
16442;SDS011;8331;51.654;14.376;2023-01-25T09:32:27;27.57;;;16.10;;
16442;SDS011;8331;51.654;14.376;2023-01-25T09:34:54;22.87;;;14.57;;
16442;SDS011;8331;51.654;14.376;2023-01-25T09:37:21;23.93;;;14.80;;
16442;SDS011;8331;51.654;14.376;2023-01-25T09:39:47;28.70;;;14.90;;
16442;SDS011;8331;51.654;14.376;2023-01-25T09:42:33;23.83;;;14.83;;
16442;SDS011;8331;51.654;14.376;2023-01-25T09:47:28;24.07;;;14.60;;
16442;SDS011;8331;51.654;14.376;2023-01-25T09:55:16;27.57;;;15.27;;
16442;SDS011;8331;51.654;14.376;2023-01-25T09:57:44;29.30;;;16.23;;
16442;SDS011;8331;51.654;14.376;2023-01-25T10:00:14;24.20;;;14.50;;
16442;SDS011;8331;51.654;14.376;2023-01-25T10:02:51;23.47;;;13.87;;
16442;SDS011;8331;51.654;14.376;2023-01-25T10:05:20;24.03;;;14.07;;
16442;SDS011;8331;51.654;14.376;2023-01-25T10:07:59;27.70;;;14.33;;
16442;SDS011;8331;51.654;14.376;2023-01-25T10:10:34;21.70;;;13.70;;
16442;SDS011;8331;51.654;14.376;2023-01-25T10:13:01;27.30;;;14.63;;
16442;SDS011;8331;51.654;14.376;2023-01-25T10:15:29;28.00;;;15.43;;
16442;SDS011;8331;51.654;14.376;2023-01-25T10:18:04;27.07;;;15.40;;
16442;SDS011;8331;51.654;14.376;2023-01-25T10:20:38;26.13;;;13.80;;
16442;SDS011;8331;51.654;14.376;2023-01-25T10:25:41;28.07;;;13.90;;
16442;SDS011;8331;51.654;14.376;2023-01-25T10:33:38;32.20;;;18.00;;
16442;SDS011;8331;51.654;14.376;2023-01-25T10:36:14;27.53;;;17.27;;
16442;SDS011;8331;51.654;14.376;2023-01-25T10:38:42;25.57;;;15.07;;
16442;SDS011;8331;51.654;14.376;2023-01-25T10:43:40;28.30;;;15.57;;
16442;SDS011;8331;51.654;14.376;2023-01-25T10:46:20;24.20;;;14.20;;
16442;SDS011;8331;51.654;14.376;2023-01-25T10:48:48;28.23;;;15.20;;
16442;SDS011;8331;51.654;14.376;2023-01-25T10:51:28;29.53;;;17.07;;
16442;SDS011;8331;51.654;14.376;2023-01-25T10:53:58;27.83;;;15.40;;
16442;SDS011;8331;51.654;14.376;2023-01-25T10:56:27;23.27;;;13.63;;
16442;SDS011;8331;51.654;14.376;2023-01-25T10:59:05;26.83;;;14.87;;
16442;SDS011;8331;51.654;14.376;2023-01-25T11:01:33;26.77;;;15.33;;
16442;SDS011;8331;51.654;14.376;2023-01-25T11:04:01;26.00;;;14.43;;
16442;SDS011;8331;51.654;14.376;2023-01-25T11:06:29;23.07;;;13.20;;
16442;SDS011;8331;51.654;14.376;2023-01-25T11:08:56;28.33;;;15.27;;
16442;SDS011;8331;51.654;14.376;2023-01-25T11:11:35;30.03;;;16.20;;
16442;SDS011;8331;51.654;14.376;2023-01-25T11:14:15;30.53;;;16.73;;
16442;SDS011;8331;51.654;14.376;2023-01-25T11:16:46;27.60;;;15.20;;
16442;SDS011;8331;51.654;14.376;2023-01-25T11:21:54;25.77;;;14.53;;
16442;SDS011;8331;51.654;14.376;2023-01-25T11:24:21;29.87;;;15.17;;
16442;SDS011;8331;51.654;14.376;2023-01-25T11:26:51;28.50;;;15.53;;
16442;SDS011;8331;51.654;14.376;2023-01-25T11:29:36;23.40;;;14.17;;
16442;SDS011;8331;51.654;14.376;2023-01-25T11:32:04;24.23;;;13.87;;
16442;SDS011;8331;51.654;14.376;2023-01-25T11:34:39;23.73;;;14.63;;
16442;SDS011;8331;51.654;14.376;2023-01-25T11:37:10;23.57;;;13.60;;
16442;SDS011;8331;51.654;14.376;2023-01-25T11:42:50;20.33;;;12.83;;
16442;SDS011;8331;51.654;14.376;2023-01-25T11:51:10;23.63;;;13.63;;
16442;SDS011;8331;51.654;14.376;2023-01-25T12:04:50;23.37;;;13.27;;
16442;SDS011;8331;51.654;14.376;2023-01-25T12:12:28;22.83;;;13.90;;
16442;SDS011;8331;51.654;14.376;2023-01-25T12:17:51;30.67;;;17.30;;
16442;SDS011;8331;51.654;14.376;2023-01-25T12:25:20;23.93;;;14.40;;
16442;SDS011;8331;51.654;14.376;2023-01-25T12:30:40;26.03;;;15.53;;
16442;SDS011;8331;51.654;14.376;2023-01-25T12:33:10;23.47;;;14.80;;
16442;SDS011;8331;51.654;14.376;2023-01-25T12:35:42;25.27;;;14.67;;
16442;SDS011;8331;51.654;14.376;2023-01-25T12:40:57;26.77;;;14.27;;
16442;SDS011;8331;51.654;14.376;2023-01-25T12:44:08;21.97;;;13.67;;
16442;SDS011;8331;51.654;14.376;2023-01-25T12:47:01;22.63;;;14.17;;
16442;SDS011;8331;51.654;14.376;2023-01-25T12:49:03;30.80;;;15.30;;
16442;SDS011;8331;51.654;14.376;2023-01-25T12:51:35;25.90;;;14.73;;
16442;SDS011;8331;51.654;14.376;2023-01-25T12:54:13;28.60;;;15.87;;
16442;SDS011;8331;51.654;14.376;2023-01-25T12:56:45;29.77;;;16.97;;
16442;SDS011;8331;51.654;14.376;2023-01-25T13:02:09;28.27;;;15.93;;
16442;SDS011;8331;51.654;14.376;2023-01-25T13:04:58;27.53;;;14.53;;
16442;SDS011;8331;51.654;14.376;2023-01-25T13:07:33;26.07;;;14.77;;
16442;SDS011;8331;51.654;14.376;2023-01-25T13:10:21;23.43;;;14.13;;
16442;SDS011;8331;51.654;14.376;2023-01-25T13:12:57;22.97;;;13.50;;
16442;SDS011;8331;51.654;14.376;2023-01-25T13:18:23;21.90;;;12.23;;
16442;SDS011;8331;51.654;14.376;2023-01-25T13:20:49;21.70;;;12.73;;
16442;SDS011;8331;51.654;14.376;2023-01-25T13:28:43;26.90;;;14.23;;
16442;SDS011;8331;51.654;14.376;2023-01-25T13:39:50;23.20;;;13.70;;
16442;SDS011;8331;51.654;14.376;2023-01-25T13:42:24;23.73;;;13.83;;
16442;SDS011;8331;51.654;14.376;2023-01-25T13:44:55;24.20;;;13.50;;
16442;SDS011;8331;51.654;14.376;2023-01-25T13:47:23;24.43;;;14.23;;
16442;SDS011;8331;51.654;14.376;2023-01-25T13:52:21;26.77;;;14.93;;
16442;SDS011;8331;51.654;14.376;2023-01-25T13:54:49;22.47;;;14.10;;
16442;SDS011;8331;51.654;14.376;2023-01-25T13:57:21;25.90;;;14.77;;
16442;SDS011;8331;51.654;14.376;2023-01-25T13:59:51;24.77;;;14.10;;
16442;SDS011;8331;51.654;14.376;2023-01-25T14:02:30;28.27;;;15.50;;
16442;SDS011;8331;51.654;14.376;2023-01-25T14:04:58;25.07;;;15.43;;
16442;SDS011;8331;51.654;14.376;2023-01-25T14:07:32;23.77;;;15.30;;
16442;SDS011;8331;51.654;14.376;2023-01-25T14:10:00;24.30;;;14.30;;
16442;SDS011;8331;51.654;14.376;2023-01-25T14:12:35;27.70;;;14.33;;
16442;SDS011;8331;51.654;14.376;2023-01-25T14:15:15;24.83;;;13.37;;
16442;SDS011;8331;51.654;14.376;2023-01-25T14:17:42;20.17;;;12.53;;
16442;SDS011;8331;51.654;14.376;2023-01-25T14:20:16;24.67;;;14.13;;
16442;SDS011;8331;51.654;14.376;2023-01-25T14:22:46;25.30;;;14.87;;
16442;SDS011;8331;51.654;14.376;2023-01-25T14:27:44;28.87;;;14.57;;
16442;SDS011;8331;51.654;14.376;2023-01-25T14:30:22;27.80;;;14.57;;
16442;SDS011;8331;51.654;14.376;2023-01-25T14:32:50;26.33;;;14.70;;
16442;SDS011;8331;51.654;14.376;2023-01-25T14:35:26;25.13;;;14.03;;
16442;SDS011;8331;51.654;14.376;2023-01-25T14:40:44;25.60;;;14.07;;
16442;SDS011;8331;51.654;14.376;2023-01-25T14:43:11;24.53;;;13.53;;
16442;SDS011;8331;51.654;14.376;2023-01-25T14:45:38;24.77;;;14.63;;
16442;SDS011;8331;51.654;14.376;2023-01-25T14:48:30;25.20;;;14.50;;
16442;SDS011;8331;51.654;14.376;2023-01-25T14:50:51;24.53;;;14.00;;
16442;SDS011;8331;51.654;14.376;2023-01-25T14:53:27;24.07;;;14.17;;
16442;SDS011;8331;51.654;14.376;2023-01-25T14:55:54;20.40;;;13.17;;
16442;SDS011;8331;51.654;14.376;2023-01-25T14:58:21;21.53;;;13.40;;
16442;SDS011;8331;51.654;14.376;2023-01-25T15:00:52;25.60;;;14.23;;
16442;SDS011;8331;51.654;14.376;2023-01-25T15:03:19;20.30;;;13.07;;
16442;SDS011;8331;51.654;14.376;2023-01-25T15:05:47;21.67;;;12.37;;
16442;SDS011;8331;51.654;14.376;2023-01-25T15:08:15;29.53;;;14.83;;
16442;SDS011;8331;51.654;14.376;2023-01-25T15:10:54;24.37;;;13.93;;
16442;SDS011;8331;51.654;14.376;2023-01-25T15:15:51;23.10;;;12.63;;
16442;SDS011;8331;51.654;14.376;2023-01-25T15:21:03;24.43;;;13.80;;
16442;SDS011;8331;51.654;14.376;2023-01-25T15:23:30;24.53;;;13.87;;
16442;SDS011;8331;51.654;14.376;2023-01-25T15:25:57;27.63;;;14.33;;
16442;SDS011;8331;51.654;14.376;2023-01-25T15:28:26;23.50;;;13.43;;
16442;SDS011;8331;51.654;14.376;2023-01-25T15:30:53;25.03;;;13.67;;
16442;SDS011;8331;51.654;14.376;2023-01-25T15:33:23;23.70;;;14.13;;
16442;SDS011;8331;51.654;14.376;2023-01-25T15:35:51;22.97;;;13.53;;
16442;SDS011;8331;51.654;14.376;2023-01-25T15:38:18;29.60;;;15.63;;
16442;SDS011;8331;51.654;14.376;2023-01-25T15:40:44;27.03;;;15.00;;
16442;SDS011;8331;51.654;14.376;2023-01-25T15:43:12;28.30;;;14.97;;
16442;SDS011;8331;51.654;14.376;2023-01-25T15:45:39;26.63;;;15.43;;
16442;SDS011;8331;51.654;14.376;2023-01-25T15:48:09;26.87;;;15.50;;
16442;SDS011;8331;51.654;14.376;2023-01-25T15:50:37;24.57;;;14.73;;
16442;SDS011;8331;51.654;14.376;2023-01-25T15:53:04;30.50;;;15.23;;
16442;SDS011;8331;51.654;14.376;2023-01-25T15:55:31;31.43;;;15.43;;
16442;SDS011;8331;51.654;14.376;2023-01-25T15:57:58;27.90;;;14.70;;
16442;SDS011;8331;51.654;14.376;2023-01-25T16:00:25;26.60;;;14.60;;
16442;SDS011;8331;51.654;14.376;2023-01-25T16:02:51;23.27;;;14.03;;
16442;SDS011;8331;51.654;14.376;2023-01-25T16:05:18;26.13;;;14.70;;
16442;SDS011;8331;51.654;14.376;2023-01-25T16:07:44;24.80;;;14.17;;
16442;SDS011;8331;51.654;14.376;2023-01-25T16:10:19;28.63;;;15.30;;
16442;SDS011;8331;51.654;14.376;2023-01-25T16:12:46;26.70;;;14.83;;
16442;SDS011;8331;51.654;14.376;2023-01-25T16:15:14;25.30;;;14.10;;
16442;SDS011;8331;51.654;14.376;2023-01-25T16:17:40;22.93;;;13.60;;